Mount Holly, Vermont
Current Conditions -  °F | °C
As of 3:15 AM on Tuesday 27 Jan 2015 (Local Time) from KRUT Reporting Station
Overcast Overcast  
Wind Chill: -18°   Ceiling: 9000
Heat Index: -13°   Visibility: 10mi
Dew Point: -17°   Wind: 5mph
Humidity: 73%   Direction: 340°NNW
Pressure: 29.82"   Gusts: NA
Location:  43.45°N, 72.83°W
Report Text: KRUT 270815Z 34004KT 10SM OVC090 M13/M17 A2982 RMK AO1
Loading
Personal Weather Stations






























Interactive Weather Map New forecast layout! Learn more

10-Day Weather Forecast

Advertisements
Track Severe Weather on mobile